Time,TemperatureF,DewpointF,PressureIn,WindDirection,WindDirectionDegrees,WindSpeedMPH,WindSpeedGustMPH,Humidity,HourlyPrecipIn,Conditions,Clouds,dailyrainin,SoftwareType,DateUTC
2013-02-11 04:42:00,58.2,57.6,30.00,NNW,338,0.0,0.0,98,0.12,,---,0.00,VWS V14.01,2013-02-11 10:42:00,
2013-02-11 04:43:00,58.2,57.6,30.00,NNW,338,0.0,0.0,98,0.00,,---,1.66,VWS V14.01,2013-02-11 10:43:00,
2013-02-11 04:44:00,58.2,57.6,30.00,North,0,0.0,2.0,98,0.00,,---,0.00,VWS V14.01,2013-02-11 10:44:00,
2013-02-11 04:45:00,58.2,57.6,30.00,North,0,0.0,0.0,98,0.00,,---,0.00,VWS V14.01,2013-02-11 10:45:00,
2013-02-11 04:46:00,58.2,57.6,30.00,NNW,338,0.0,0.0,98,0.00,,---,0.00,VWS V14.01,2013-02-11 10:46:00,
2013-02-11 04:47:00,58.2,57.6,30.00,NNE,22,0.0,0.0,98,0.00,,---,0.00,VWS V14.01,2013-02-11 10:47:00,
2013-02-11 04:48:00,58.2,57.6,30.00,NNW,338,0.0,0.0,98,0.00,,---,0.00,VWS V14.01,2013-02-11 10:48:00,
2013-02-11 04:49:00,58.2,57.6,30.00,NW,315,1.6,2.7,98,0.00,,---,0.00,VWS V14.01,2013-02-11 10:49:00,
2013-02-11 04:50:00,58.2,57.6,30.00,NW,315,0.0,1.6,98,0.00,,---,0.00,VWS V14.01,2013-02-11 10:50:00,
2013-02-11 04:51:00,58.2,57.6,30.00,NW,315,0.0,0.0,98,0.00,,---,0.00,VWS V14.01,2013-02-11 10:51:00,
2013-02-11 04:52:00,58.2,57.6,30.00,NW,315,0.0,0.0,98,0.00,,---,0.00,VWS V14.01,2013-02-11 10:52:00,
2013-02-11 04:53:00,58.2,57.6,30.00,NW,315,0.0,0.0,98,0.00,,---,0.00,VWS V14.01,2013-02-11 10:53:00,
2013-02-11 04:54:00,58.0,57.5,30.00,NW,315,0.0,0.0,98,0.00,,---,0.00,VWS V14.01,2013-02-11 10:54:00,
2013-02-11 04:55:00,58.0,57.5,30.00,ESE,112,0.0,0.0,98,0.00,,---,0.00,VWS V14.01,2013-02-11 10:55:00,
2013-02-11 04:56:00,58.0,57.5,30.00,ESE,112,0.0,0.0,98,0.00,,---,0.00,VWS V14.01,2013-02-11 10:56:00,
2013-02-11 04:57:00,57.8,57.3,30.00,ESE,112,0.0,0.0,98,0.00,,---,0.00,VWS V14.01,2013-02-11 10:57:00,
2013-02-11 04:58:00,57.8,57.3,30.03,ESE,112,0.0,0.0,98,0.00,,---,0.00,VWS V14.01,2013-02-11 10:58:00,
2013-02-11 04:59:00,57.8,57.3,30.03,ESE,112,0.0,0.0,98,0.00,,---,0.00,VWS V14.01,2013-02-11 10:59:00,
2013-02-11 05:00:00,57.8,57.3,30.03,ESE,112,0.0,0.0,98,0.00,,---,0.00,VWS V14.01,2013-02-11 11:00:00,
2013-02-11 05:01:00,57.8,57.3,30.03,SE,135,0.0,0.0,98,0.00,,---,0.00,VWS V14.01,2013-02-11 11:01:00,
2013-02-11 05:02:00,57.8,57.3,30.03,SE,135,0.0,0.0,98,0.00,,---,0.00,VWS V14.01,2013-02-11 11:02:00,
2013-02-11 05:03:00,57.8,57.3,30.03,SE,135,0.0,0.0,98,0.00,,---,0.00,VWS V14.01,2013-02-11 11:03:00,
2013-02-11 05:04:00,57.7,57.1,30.03,SE,135,0.0,0.0,98,0.00,,---,0.00,VWS V14.01,2013-02-11 11:04:00,
2013-02-11 05:05:00,57.7,57.1,30.03,ESE,112,0.0,0.0,98,0.00,,---,0.00,VWS V14.01,2013-02-11 11:05:00,
2013-02-11 05:06:00,57.7,57.1,30.03,ESE,112,0.0,0.0,98,0.00,,---,0.00,VWS V14.01,2013-02-11 11:06:00,
2013-02-11 05:07:00,57.7,57.1,30.03,ESE,112,0.0,0.0,98,0.00,,---,0.00,VWS V14.01,2013-02-11 11:07:00,
2013-02-11 05:08:00,57.7,57.1,30.03,NE,45,0.0,0.0,98,0.00,,---,0.00,VWS V14.01,2013-02-11 11:08:00,
2013-02-11 05:09:00,57.7,57.1,30.03,NE,45,0.0,0.0,98,0.00,,---,0.00,VWS V14.01,2013-02-11 11:09:00,
2013-02-11 05:10:00,57.7,57.1,30.03,NNW,338,0.0,0.0,98,0.00,,---,0.00,VWS V14.01,2013-02-11 11:10:00,
2013-02-11 05:11:00,57.7,57.1,30.03,NNW,338,0.0,0.0,98,0.00,,---,0.00,VWS V14.01,2013-02-11 11:11:00,
2013-02-11 05:12:00,57.7,57.1,30.03,NNW,338,0.0,0.0,98,0.00,,---,0.00,VWS V14.01,2013-02-11 11:12:00,
2013-02-11 05:13:00,57.7,57.1,30.00,NNW,338,0.0,0.0,98,0.00,,---,0.00,VWS V14.01,2013-02-11 11:13:00,
2013-02-11 05:14:00,57.7,57.1,30.00,NNW,338,0.0,0.0,98,0.00,,---,0.00,VWS V14.01,2013-02-11 11:14:00,
2013-02-11 05:15:00,57.7,57.1,30.00,NNW,338,0.0,0.0,98,0.00,,---,0.00,VWS V14.01,2013-02-11 11:15:00,
2013-02-11 05:16:00,57.7,57.1,30.00,NNW,338,0.0,0.0,98,0.00,,---,0.00,VWS V14.01,2013-02-11 11:16:00,
2013-02-11 05:17:00,57.7,57.1,30.00,NNW,338,0.0,0.0,98,0.00,,---,0.00,VWS V14.01,2013-02-11 11:17:00,
2013-02-11 05:18:00,57.7,57.1,30.00,NNW,338,0.0,0.0,98,0.00,,---,0.00,VWS V14.01,2013-02-11 11:18:00,
2013-02-11 05:19:00,57.7,57.1,30.00,NNW,338,0.0,0.0,98,0.00,,---,0.00,VWS V14.01,2013-02-11 11:19:00,
2013-02-11 05:20:00,57.7,57.1,30.00,NNW,338,0.0,0.0,98,0.00,,---,0.00,VWS V14.01,2013-02-11 11:20:00,
2013-02-11 05:21:00,57.5,56.9,30.00,NNW,338,1.6,1.6,98,0.00,,---,0.00,VWS V14.01,2013-02-11 11:21:00,
2013-02-11 05:22:00,57.5,56.9,30.00,NNW,338,0.0,1.6,98,0.00,,---,0.00,VWS V14.01,2013-02-11 11:22:00,
2013-02-11 05:23:00,57.5,56.9,30.00,NNW,338,0.0,0.0,98,0.00,,---,0.00,VWS V14.01,2013-02-11 11:23:00,
2013-02-11 05:24:00,57.5,56.9,30.00,NNW,338,0.0,0.0,98,0.00,,---,0.00,VWS V14.01,2013-02-11 11:24:00,
2013-02-11 05:25:00,57.5,56.9,30.00,NNW,338,0.0,0.0,98,0.00,,---,0.00,VWS V14.01,2013-02-11 11:25:00,
2013-02-11 05:26:00,57.5,56.9,30.00,NNW,338,0.0,0.0,98,0.00,,---,0.00,VWS V14.01,2013-02-11 11:26:00,
2013-02-11 05:27:00,57.5,56.9,30.03,NNW,338,0.0,0.0,98,0.00,,---,0.00,VWS V14.01,2013-02-11 11:27:00,
2013-02-11 05:28:00,57.7,57.1,30.00,NNW,338,0.0,0.0,98,0.00,,---,0.00,VWS V14.01,2013-02-11 11:28:00,
2013-02-11 12:02:00,53.3,52.8,30.09,SE,135,0.0,0.0,98,0.00,,---,0.00,VWS V14.01,2013-02-11 18:02:00,
2013-02-11 12:07:00,53.3,52.8,30.09,NNW,338,0.0,0.0,98,0.05,,---,0.67,VWS V14.01,2013-02-11 18:07:00,
2013-02-11 12:12:00,53.3,52.8,30.09,SSE,158,1.1,1.1,98,0.05,,---,0.67,VWS V14.01,2013-02-11 18:12:00,
2013-02-11 12:17:00,53.5,53.0,30.09,SSE,158,0.9,2.0,98,0.05,,---,0.67,VWS V14.01,2013-02-11 18:17:00,
2013-02-11 12:22:00,53.5,53.0,30.09,NE,45,0.0,2.0,98,0.08,,---,0.70,VWS V14.01,2013-02-11 18:22:00,
2013-02-11 12:27:00,53.5,53.0,30.09,ENE,68,0.0,0.0,98,0.08,,---,0.70,VWS V14.01,2013-02-11 18:27:00,
2013-02-11 12:32:00,53.5,53.0,30.09,SSE,158,3.4,3.4,98,0.08,,---,0.70,VWS V14.01,2013-02-11 18:32:00,
2013-02-11 12:37:00,53.3,52.8,30.09,ESE,112,0.0,0.0,98,0.08,,---,0.70,VWS V14.01,2013-02-11 18:37:00,
2013-02-11 12:42:00,53.2,52.6,30.09,SE,135,0.0,2.0,98,0.08,,---,0.70,VWS V14.01,2013-02-11 18:42:00,
2013-02-11 12:47:00,53.0,52.4,30.06,SSE,158,0.0,0.9,98,0.08,,---,0.70,VWS V14.01,2013-02-11 18:47:00,
2013-02-11 12:52:00,53.0,52.4,30.06,NE,45,0.0,2.9,98,0.08,,---,0.70,VWS V14.01,2013-02-11 18:52:00,
2013-02-11 12:57:00,53.0,52.4,30.06,East,90,0.0,0.0,98,0.08,,---,0.70,VWS V14.01,2013-02-11 18:57:00,
2013-02-11 13:02:00,53.0,52.4,30.06,SSW,202,0.0,0.0,98,0.08,,---,0.70,VWS V14.01,2013-02-11 19:02:00,
2013-02-11 13:07:00,53.0,52.4,30.06,ENE,68,0.0,0.0,98,0.03,,---,0.70,VWS V14.01,2013-02-11 19:07:00,
2013-02-11 13:12:00,53.2,52.6,30.06,SSE,158,0.0,0.0,98,0.03,,---,0.70,VWS V14.01,2013-02-11 19:12:00,
2013-02-11 13:17:00,53.0,52.4,30.03,ENE,68,1.6,2.9,98,0.03,,---,0.70,VWS V14.01,2013-02-11 19:17:00,
2013-02-11 13:22:00,53.0,52.4,30.03,NE,45,0.0,0.0,98,0.00,,---,0.70,VWS V14.01,2013-02-11 19:22:00,
2013-02-11 13:27:00,53.2,52.6,30.03,ESE,112,1.6,2.5,98,0.00,,---,0.70,VWS V14.01,2013-02-11 19:27:00,
2013-02-11 13:32:00,53.3,52.8,30.03,ENE,68,0.0,0.0,98,0.00,,---,0.70,VWS V14.01,2013-02-11 19:32:00,
2013-02-11 13:37:00,53.3,52.8,30.03,NE,45,0.0,1.6,98,0.00,,---,0.70,VWS V14.01,2013-02-11 19:37:00,
2013-02-11 13:42:00,53.5,53.0,30.03,North,0,1.3,3.4,98,0.00,,---,0.70,VWS V14.01,2013-02-11 19:42:00,
2013-02-11 13:47:00,53.5,53.0,30.00,SSE,158,0.0,0.0,98,0.00,,---,0.70,VWS V14.01,2013-02-11 19:47:00,
2013-02-11 13:52:00,53.3,52.8,30.00,ESE,112,2.9,2.9,98,0.00,,---,0.70,VWS V14.01,2013-02-11 19:52:00,
2013-02-11 13:57:00,53.3,52.8,30.00,WSW,248,2.2,3.4,98,0.00,,---,0.70,VWS V14.01,2013-02-11 19:57:00,
2013-02-11 14:02:00,53.3,52.8,30.03,ESE,112,0.0,0.0,98,0.00,,---,0.70,VWS V14.01,2013-02-11 20:02:00,
2013-02-11 14:07:00,53.2,52.6,30.03,NNE,22,0.0,0.9,98,0.00,,---,0.70,VWS V14.01,2013-02-11 20:07:00,
2013-02-11 14:12:00,53.0,52.4,30.03,WSW,248,1.6,2.0,98,0.05,,---,0.75,VWS V14.01,2013-02-11 20:12:00,
2013-02-11 14:17:00,53.0,52.4,30.03,NW,315,0.0,0.0,98,0.05,,---,0.75,VWS V14.01,2013-02-11 20:17:00,
2013-02-11 14:22:00,53.0,52.4,30.03,North,0,1.6,3.1,98,0.05,,---,0.75,VWS V14.01,2013-02-11 20:22:00,
2013-02-11 14:27:00,53.2,52.6,30.03,SE,135,1.3,2.9,98,0.05,,---,0.75,VWS V14.01,2013-02-11 20:27:00,
2013-02-11 14:32:00,53.2,52.6,30.03,North,0,0.0,0.0,98,0.05,,---,0.75,VWS V14.01,2013-02-11 20:32:00,
2013-02-11 14:37:00,53.2,52.6,30.03,South,180,0.0,0.0,98,0.05,,---,0.75,VWS V14.01,2013-02-11 20:37:00,
2013-02-11 14:42:00,53.2,52.6,30.03,SSW,202,0.0,1.3,98,0.09,,---,0.79,VWS V14.01,2013-02-11 20:42:00,
2013-02-11 14:47:00,53.0,52.4,30.06,NNE,22,1.6,2.9,98,0.09,,---,0.79,VWS V14.01,2013-02-11 20:47:00,
2013-02-11 14:52:00,53.0,52.4,30.06,NNW,338,0.0,0.0,98,0.09,,---,0.79,VWS V14.01,2013-02-11 20:52:00,
2013-02-11 14:57:00,53.0,52.4,30.06,SSW,202,0.0,0.0,98,0.13,,---,0.83,VWS V14.01,2013-02-11 20:57:00,
2013-02-11 15:02:00,53.0,52.4,30.06,WSW,248,0.0,0.0,98,0.13,,---,0.83,VWS V14.01,2013-02-11 21:02:00,
2013-02-11 15:07:00,53.0,52.4,30.06,NNE,22,0.0,0.0,98,0.13,,---,0.83,VWS V14.01,2013-02-11 21:07:00,
2013-02-11 15:12:00,52.8,52.2,30.06,NNE,22,0.0,2.2,98,0.12,,---,0.87,VWS V14.01,2013-02-11 21:12:00,
2013-02-11 15:17:00,52.8,52.2,30.00,NE,45,2.0,2.0,98,0.16,,---,0.91,VWS V14.01,2013-02-11 21:17:00,
2013-02-11 15:22:00,52.6,52.1,30.00,NW,315,0.0,2.5,98,0.16,,---,0.91,VWS V14.01,2013-02-11 21:22:00,
2013-02-11 15:27:00,52.6,52.1,30.00,ESE,112,1.6,2.0,98,0.16,,---,0.91,VWS V14.01,2013-02-11 21:27:00,
2013-02-11 15:32:00,52.6,52.1,30.03,NNW,338,1.3,3.1,98,0.16,,---,0.91,VWS V14.01,2013-02-11 21:32:00,
2013-02-11 15:37:00,52.6,52.1,30.03,NNE,22,0.0,0.0,98,0.16,,---,0.91,VWS V14.01,2013-02-11 21:37:00,
2013-02-11 15:42:00,52.6,52.1,30.03,WNW,292,2.9,2.9,98,0.12,,---,0.91,VWS V14.01,2013-02-11 21:42:00,
2013-02-11 15:47:00,52.8,52.2,30.06,NNW,338,0.0,0.0,98,0.12,,---,0.91,VWS V14.01,2013-02-11 21:47:00,
2013-02-11 15:52:00,53.0,52.4,30.06,South,180,0.0,0.0,98,0.12,,---,0.91,VWS V14.01,2013-02-11 21:52:00,
2013-02-11 15:57:00,53.0,52.4,30.06,ESE,112,2.0,2.5,98,0.08,,---,0.91,VWS V14.01,2013-02-11 21:57:00,
2013-02-11 16:02:00,53.0,52.4,30.06,SSW,202,0.0,0.0,98,0.08,,---,0.91,VWS V14.01,2013-02-11 22:02:00,
2013-02-11 16:07:00,53.0,52.4,30.06,WSW,248,0.0,0.0,98,0.08,,---,0.91,VWS V14.01,2013-02-11 22:07:00,
2013-02-11 16:12:00,52.8,52.2,30.06,ENE,68,2.7,2.7,98,0.08,,---,0.95,VWS V14.01,2013-02-11 22:12:00,
2013-02-11 16:17:00,52.6,52.1,30.06,North,0,2.2,2.2,98,0.04,,---,0.95,VWS V14.01,2013-02-11 22:17:00,
2013-02-11 16:22:00,52.6,52.1,30.06,North,0,0.0,0.0,98,0.09,,---,1.00,VWS V14.01,2013-02-11 22:22:00,
2013-02-11 16:27:00,52.6,52.1,30.06,SE,135,0.0,0.0,98,0.09,,---,1.00,VWS V14.01,2013-02-11 22:27:00,
2013-02-11 16:32:00,52.8,52.2,30.03,ESE,112,1.1,1.1,98,0.09,,---,1.00,VWS V14.01,2013-02-11 22:32:00,
2013-02-11 16:37:00,53.2,52.6,30.03,East,90,0.0,0.0,98,0.09,,---,1.00,VWS V14.01,2013-02-11 22:37:00,
2013-02-11 16:42:00,53.2,52.6,30.03,ESE,112,2.9,2.9,98,0.09,,---,1.00,VWS V14.01,2013-02-11 22:42:00,
2013-02-11 16:47:00,53.0,52.4,30.00,NNE,22,2.0,2.0,98,0.09,,---,1.00,VWS V14.01,2013-02-11 22:47:00,
2013-02-11 16:52:00,52.6,52.1,30.00,NNE,22,0.0,0.0,98,0.09,,---,1.00,VWS V14.01,2013-02-11 22:52:00,
2013-02-11 16:57:00,52.4,51.9,30.00,NNW,338,1.6,2.5,98,0.09,,---,1.00,VWS V14.01,2013-02-11 22:57:00,
2013-02-11 17:02:00,52.3,51.7,30.00,NE,45,0.0,2.0,98,0.09,,---,1.00,VWS V14.01,2013-02-11 23:02:00,
2013-02-11 17:07:00,52.1,51.5,30.00,NNE,22,0.0,0.0,98,0.09,,---,1.00,VWS V14.01,2013-02-11 23:07:00,
2013-02-11 17:12:00,52.1,51.5,30.00,ESE,112,0.0,0.0,98,0.05,,---,1.00,VWS V14.01,2013-02-11 23:12:00,
2013-02-11 17:17:00,52.1,51.5,30.06,SSE,158,2.9,2.9,98,0.05,,---,1.00,VWS V14.01,2013-02-11 23:17:00,
2013-02-11 17:22:00,51.9,51.4,30.06,ENE,68,0.0,0.0,98,0.00,,---,1.00,VWS V14.01,2013-02-11 23:22:00,
2013-02-11 17:27:00,51.7,51.2,30.06,NNW,338,0.0,0.0,98,0.00,,---,1.00,VWS V14.01,2013-02-11 23:27:00,
2013-02-11 17:32:00,51.7,51.2,30.03,SSW,202,0.0,0.0,98,0.00,,---,1.00,VWS V14.01,2013-02-11 23:32:00,
2013-02-11 17:37:00,51.7,51.2,30.03,NNE,22,1.6,2.5,98,0.00,,---,1.00,VWS V14.01,2013-02-11 23:37:00,
2013-02-11 17:42:00,51.5,51.0,30.03,WSW,248,0.0,0.0,98,0.00,,---,1.00,VWS V14.01,2013-02-11 23:42:00,
2013-02-11 17:47:00,51.5,51.0,30.03,West,270,3.4,3.8,98,0.00,,---,1.00,VWS V14.01,2013-02-11 23:47:00,
2013-02-11 17:52:00,51.5,51.0,30.03,NNE,22,0.0,0.0,98,0.00,,---,1.00,VWS V14.01,2013-02-11 23:52:00,
2013-02-11 17:57:00,51.4,50.8,30.03,WSW,248,0.0,0.0,98,0.00,,---,1.00,VWS V14.01,2013-02-11 23:57:00,
2013-02-11 18:03:00,51.4,50.8,30.09,NNE,22,0.0,0.0,98,0.00,,---,1.00,VWS V14.01,2013-02-12 00:03:00,
2013-02-11 18:08:00,51.4,50.8,30.09,NNE,22,0.0,0.0,98,0.00,,---,1.00,VWS V14.01,2013-02-12 00:08:00,
2013-02-11 18:13:00,51.4,50.8,30.09,NNW,338,0.0,0.0,98,0.00,,---,1.00,VWS V14.01,2013-02-12 00:13:00,
2013-02-11 18:18:00,51.4,50.8,30.09,North,0,0.0,0.0,98,0.00,,---,1.00,VWS V14.01,2013-02-12 00:18:00,
2013-02-11 18:23:00,51.4,50.8,30.09,North,0,0.0,0.0,98,0.00,,---,1.00,VWS V14.01,2013-02-12 00:23:00,
2013-02-11 18:28:00,51.4,50.8,30.06,ENE,68,0.0,0.0,98,0.00,,---,1.00,VWS V14.01,2013-02-12 00:28:00,
2013-02-11 18:33:00,51.4,50.8,30.06,SSW,202,0.0,0.0,98,0.00,,---,1.00,VWS V14.01,2013-02-12 00:33:00,
2013-02-11 18:38:00,51.4,50.8,30.06,NW,315,0.0,0.0,98,0.00,,---,1.00,VWS V14.01,2013-02-12 00:38:00,
2013-02-11 18:43:00,51.4,50.8,30.03,ENE,68,3.1,3.1,98,0.00,,---,1.00,VWS V14.01,2013-02-12 00:43:00,
2013-02-11 18:48:00,51.4,50.8,30.03,WSW,248,2.7,3.1,98,0.04,,---,1.04,VWS V14.01,2013-02-12 00:48:00,
2013-02-11 18:53:00,51.2,50.6,30.03,North,0,2.7,2.7,98,0.04,,---,1.04,VWS V14.01,2013-02-12 00:53:00,
2013-02-11 18:58:00,51.2,50.6,30.06,NNW,338,2.5,3.1,98,0.04,,---,1.04,VWS V14.01,2013-02-12 00:58:00,
2013-02-11 19:03:00,51.2,50.6,30.06,North,0,2.2,2.5,98,0.04,,---,1.04,VWS V14.01,2013-02-12 01:03:00,
2013-02-11 19:08:00,51.2,50.6,30.06,NNW,338,2.0,2.0,98,0.04,,---,1.04,VWS V14.01,2013-02-12 01:08:00,
2013-02-11 19:13:00,51.4,50.8,30.06,WNW,292,0.0,1.1,98,0.04,,---,1.04,VWS V14.01,2013-02-12 01:13:00,
2013-02-11 19:18:00,51.4,50.8,30.09,North,0,0.0,0.0,98,0.04,,---,1.04,VWS V14.01,2013-02-12 01:18:00,
2013-02-11 19:23:00,51.4,50.8,30.09,ENE,68,0.0,0.0,98,0.04,,---,1.04,VWS V14.01,2013-02-12 01:23:00,
2013-02-11 19:28:00,51.4,50.8,30.06,ENE,68,0.0,0.0,98,0.04,,---,1.04,VWS V14.01,2013-02-12 01:28:00,
2013-02-11 19:33:00,51.4,50.8,30.06,SSE,158,0.0,0.0,98,0.04,,---,1.04,VWS V14.01,2013-02-12 01:33:00,
2013-02-11 19:38:00,51.4,50.8,30.06,WNW,292,1.1,1.1,98,0.04,,---,1.04,VWS V14.01,2013-02-12 01:38:00,
2013-02-11 19:43:00,51.4,50.8,30.06,NNW,338,0.0,0.0,98,0.04,,---,1.04,VWS V14.01,2013-02-12 01:43:00,
2013-02-11 19:48:00,51.4,50.8,30.09,SSE,158,0.9,1.1,98,0.04,,---,1.08,VWS V14.01,2013-02-12 01:48:00,
2013-02-11 19:53:00,51.4,50.8,30.09,NNW,338,0.0,0.0,98,0.04,,---,1.08,VWS V14.01,2013-02-12 01:53:00,
2013-02-11 19:58:00,51.2,50.6,30.09,North,0,0.0,0.0,98,0.04,,---,1.08,VWS V14.01,2013-02-12 01:58:00,
2013-02-11 20:03:00,51.2,50.6,30.09,North,0,0.0,0.0,98,0.04,,---,1.08,VWS V14.01,2013-02-12 02:03:00,
2013-02-11 20:08:00,51.2,50.6,30.09,North,0,0.0,0.0,98,0.04,,---,1.08,VWS V14.01,2013-02-12 02:08:00,
2013-02-11 20:13:00,51.2,50.6,30.09,WNW,292,0.0,0.0,98,0.04,,---,1.08,VWS V14.01,2013-02-12 02:13:00,
2013-02-11 20:18:00,51.4,50.8,30.09,WNW,292,0.0,0.0,98,0.04,,---,1.08,VWS V14.01,2013-02-12 02:18:00,
2013-02-11 20:23:00,51.2,50.6,30.09,NNW,338,0.0,0.0,98,0.04,,---,1.08,VWS V14.01,2013-02-12 02:23:00,
2013-02-11 20:28:00,51.4,50.8,30.09,NNW,338,0.0,0.0,98,0.04,,---,1.08,VWS V14.01,2013-02-12 02:28:00,
2013-02-11 20:33:00,51.2,50.6,30.09,NNW,338,0.0,0.0,98,0.04,,---,1.08,VWS V14.01,2013-02-12 02:33:00,
2013-02-11 20:38:00,51.2,50.6,30.09,NNW,338,1.1,1.1,98,0.04,,---,1.08,VWS V14.01,2013-02-12 02:38:00,
2013-02-11 20:43:00,51.2,50.6,30.09,NE,45,0.0,0.0,98,0.04,,---,1.08,VWS V14.01,2013-02-12 02:43:00,
2013-02-11 20:48:00,51.2,50.6,30.09,NNE,22,0.0,0.0,98,0.00,,---,1.08,VWS V14.01,2013-02-12 02:48:00,
2013-02-11 20:53:00,51.2,50.6,30.09,NNW,338,0.0,0.0,98,0.00,,---,1.08,VWS V14.01,2013-02-12 02:53:00,
2013-02-11 20:58:00,51.2,50.6,30.06,NNW,338,0.0,0.0,98,0.00,,---,1.08,VWS V14.01,2013-02-12 02:58:00,
2013-02-11 21:03:00,51.2,50.6,30.06,NNW,338,0.0,0.0,98,0.00,,---,1.08,VWS V14.01,2013-02-12 03:03:00,
2013-02-11 21:08:00,51.2,50.6,30.06,NW,315,1.3,1.3,98,0.00,,---,1.08,VWS V14.01,2013-02-12 03:08:00,
2013-02-11 21:13:00,51.2,50.6,30.09,NE,45,0.0,0.0,98,0.00,,---,1.08,VWS V14.01,2013-02-12 03:13:00,
2013-02-11 21:18:00,51.2,50.6,30.09,NNW,338,0.0,0.0,98,0.00,,---,1.08,VWS V14.01,2013-02-12 03:18:00,
2013-02-11 21:23:00,51.2,50.6,30.09,ENE,68,0.0,0.0,98,0.00,,---,1.08,VWS V14.01,2013-02-12 03:23:00,
2013-02-11 21:28:00,51.2,50.6,30.06,NNE,22,1.3,1.3,98,0.00,,---,1.08,VWS V14.01,2013-02-12 03:28:00,
2013-02-11 21:33:00,51.0,50.5,30.06,WNW,292,0.0,0.0,98,0.00,,---,1.08,VWS V14.01,2013-02-12 03:33:00,
2013-02-11 21:38:00,51.0,50.5,30.06,ESE,112,0.0,0.0,98,0.00,,---,1.08,VWS V14.01,2013-02-12 03:38:00,
2013-02-11 21:43:00,51.0,50.5,30.06,NW,315,0.0,1.3,98,0.00,,---,1.08,VWS V14.01,2013-02-12 03:43:00,
2013-02-11 21:49:00,51.0,50.5,30.06,NNW,338,1.6,2.0,98,0.00,,---,1.08,VWS V14.01,2013-02-12 03:49:00,
2013-02-11 21:54:00,50.8,50.3,30.06,NNW,338,0.0,0.0,98,0.00,,---,1.08,VWS V14.01,2013-02-12 03:54:00,
2013-02-11 21:59:00,51.0,50.5,30.09,ESE,112,0.0,0.0,98,0.00,,---,1.08,VWS V14.01,2013-02-12 03:59:00,
2013-02-11 22:04:00,50.8,50.3,30.09,NE,45,0.0,0.0,98,0.00,,---,1.08,VWS V14.01,2013-02-12 04:04:00,
2013-02-11 22:09:00,50.8,50.3,30.09,SSE,158,0.9,0.9,98,0.00,,---,1.08,VWS V14.01,2013-02-12 04:09:00,
2013-02-11 22:14:00,50.8,50.3,30.09,ESE,112,2.0,2.0,98,0.00,,---,1.08,VWS V14.01,2013-02-12 04:14:00,
2013-02-11 22:19:00,50.8,50.3,30.09,NE,45,0.0,0.0,98,0.00,,---,1.08,VWS V14.01,2013-02-12 04:19:00,
2013-02-11 22:24:00,50.8,50.3,30.09,ENE,68,0.0,0.0,98,0.00,,---,1.08,VWS V14.01,2013-02-12 04:24:00,
2013-02-11 22:29:00,50.8,50.3,30.03,SSE,158,0.0,0.0,98,0.00,,---,1.08,VWS V14.01,2013-02-12 04:29:00,
2013-02-11 22:34:00,50.8,50.3,30.03,NE,45,0.0,0.0,98,0.00,,---,1.08,VWS V14.01,2013-02-12 04:34:00,
2013-02-11 22:39:00,50.8,50.3,30.03,NNW,338,1.3,2.7,98,0.00,,---,1.08,VWS V14.01,2013-02-12 04:39:00,
2013-02-11 22:44:00,50.8,50.3,30.06,NNW,338,0.0,0.0,98,0.00,,---,1.08,VWS V14.01,2013-02-12 04:44:00,
2013-02-11 22:49:00,50.8,50.3,30.06,NNW,338,0.0,0.0,98,0.00,,---,1.08,VWS V14.01,2013-02-12 04:49:00,
2013-02-11 22:54:00,50.8,50.3,30.06,SE,135,2.5,2.7,98,0.00,,---,1.08,VWS V14.01,2013-02-12 04:54:00,
2013-02-11 22:59:00,50.8,50.3,30.06,WSW,248,0.0,0.0,98,0.00,,---,1.08,VWS V14.01,2013-02-12 04:59:00,
2013-02-11 23:00:00,50.8,50.3,30.06,WNW,292,0.0,0.0,98,0.00,,---,1.08,VWS V14.01,2013-02-12 05:00:00,
2013-02-11 23:05:00,50.6,50.1,30.06,WNW,292,1.1,1.1,98,0.08,,---,1.16,VWS V14.01,2013-02-12 05:05:00,
2013-02-11 23:10:00,50.6,50.1,30.06,WSW,248,0.0,0.0,98,0.08,,---,1.16,VWS V14.01,2013-02-12 05:10:00,
2013-02-11 23:15:00,50.6,50.1,30.06,NNE,22,0.0,0.0,98,0.08,,---,1.16,VWS V14.01,2013-02-12 05:15:00,
2013-02-11 23:20:00,50.5,49.9,30.06,SSE,158,3.4,3.4,98,0.12,,---,1.20,VWS V14.01,2013-02-12 05:20:00,
2013-02-11 23:25:00,50.5,49.9,30.06,ENE,68,0.0,0.0,98,0.12,,---,1.20,VWS V14.01,2013-02-12 05:25:00,
2013-02-11 23:30:00,50.5,49.9,30.06,North,0,0.0,0.0,98,0.12,,---,1.20,VWS V14.01,2013-02-12 05:30:00,
2013-02-11 23:35:00,50.5,49.9,30.06,NNE,22,0.0,0.0,98,0.12,,---,1.20,VWS V14.01,2013-02-12 05:35:00,
2013-02-11 23:40:00,50.5,49.9,30.06,WSW,248,1.6,2.0,98,0.12,,---,1.20,VWS V14.01,2013-02-12 05:40:00,
2013-02-11 23:45:00,50.5,49.9,30.06,ENE,68,1.6,1.6,98,0.12,,---,1.20,VWS V14.01,2013-02-12 05:45:00,
2013-02-11 23:50:00,50.5,49.9,30.06,WNW,292,0.0,0.0,98,0.16,,---,1.24,VWS V14.01,2013-02-12 05:50:00,
2013-02-11 23:55:00,50.5,49.9,30.06,WNW,292,0.0,0.0,98,0.16,,---,1.24,VWS V14.01,2013-02-12 05:55:00,